sensor_id;sensor_type;location;lat;lon;timestamp;temperature;humidity
18103;DHT22;9178;51.120;6.192;2023-03-01T00:01:37;-0.80;99.90
18103;DHT22;9178;51.120;6.192;2023-03-01T00:04:03;-0.90;99.90
18103;DHT22;9178;51.120;6.192;2023-03-01T00:06:31;-0.90;99.90
18103;DHT22;9178;51.120;6.192;2023-03-01T00:08:58;-0.90;99.90
18103;DHT22;9178;51.120;6.192;2023-03-01T00:11:27;-1.00;99.90
18103;DHT22;9178;51.120;6.192;2023-03-01T00:13:56;-1.00;99.90
18103;DHT22;9178;51.120;6.192;2023-03-01T00:16:25;-1.10;99.90
18103;DHT22;9178;51.120;6.192;2023-03-01T00:18:53;-1.10;99.90
18103;DHT22;9178;51.120;6.192;2023-03-01T00:21:21;-1.10;99.90
18103;DHT22;9178;51.120;6.192;2023-03-01T00:23:49;-1.10;99.90
18103;DHT22;9178;51.120;6.192;2023-03-01T00:26:17;-1.20;99.90
18103;DHT22;9178;51.120;6.192;2023-03-01T00:28:45;-1.20;99.90
18103;DHT22;9178;51.120;6.192;2023-03-01T00:31:14;-1.20;99.90
18103;DHT22;9178;51.120;6.192;2023-03-01T00:33:41;-1.30;99.90
18103;DHT22;9178;51.120;6.192;2023-03-01T00:36:09;-1.30;99.90
18103;DHT22;9178;51.120;6.192;2023-03-01T00:38:37;-1.30;99.90
18103;DHT22;9178;51.120;6.192;2023-03-01T00:41:07;-1.30;99.90
18103;DHT22;9178;51.120;6.192;2023-03-01T00:43:34;-1.30;99.90
18103;DHT22;9178;51.120;6.192;2023-03-01T00:46:04;-1.30;99.90
18103;DHT22;9178;51.120;6.192;2023-03-01T00:48:31;-1.40;99.90
18103;DHT22;9178;51.120;6.192;2023-03-01T00:51:04;-1.40;99.90
18103;DHT22;9178;51.120;6.192;2023-03-01T00:53:31;-1.40;99.90
18103;DHT22;9178;51.120;6.192;2023-03-01T00:55:58;-1.40;99.90
18103;DHT22;9178;51.120;6.192;2023-03-01T00:58:27;-1.40;99.90
18103;DHT22;9178;51.120;6.192;2023-03-01T01:00:54;-1.40;99.90
18103;DHT22;9178;51.120;6.192;2023-03-01T01:03:21;-1.50;99.90
18103;DHT22;9178;51.120;6.192;2023-03-01T01:05:50;-1.50;99.90
18103;DHT22;9178;51.120;6.192;2023-03-01T01:08:17;-1.50;99.90
18103;DHT22;9178;51.120;6.192;2023-03-01T01:10:44;-1.50;99.90
18103;DHT22;9178;51.120;6.192;2023-03-01T01:13:11;-1.60;99.90
18103;DHT22;9178;51.120;6.192;2023-03-01T01:15:40;-1.60;99.90
18103;DHT22;9178;51.120;6.192;2023-03-01T01:18:07;-1.60;99.90
18103;DHT22;9178;51.120;6.192;2023-03-01T01:20:35;-1.60;99.90
18103;DHT22;9178;51.120;6.192;2023-03-01T01:23:16;-1.60;99.90
18103;DHT22;9178;51.120;6.192;2023-03-01T01:25:43;-1.60;99.90
18103;DHT22;9178;51.120;6.192;2023-03-01T01:28:09;-1.60;99.90
18103;DHT22;9178;51.120;6.192;2023-03-01T01:30:36;-1.60;99.90
18103;DHT22;9178;51.120;6.192;2023-03-01T01:33:07;-1.70;99.90
18103;DHT22;9178;51.120;6.192;2023-03-01T01:35:34;-1.70;99.90
18103;DHT22;9178;51.120;6.192;2023-03-01T01:38:01;-1.70;99.90
18103;DHT22;9178;51.120;6.192;2023-03-01T01:40:28;-1.70;99.90
18103;DHT22;9178;51.120;6.192;2023-03-01T01:42:54;-1.80;99.90
18103;DHT22;9178;51.120;6.192;2023-03-01T01:45:32;-1.80;99.90
18103;DHT22;9178;51.120;6.192;2023-03-01T01:48:03;-1.80;99.90
18103;DHT22;9178;51.120;6.192;2023-03-01T01:50:33;-1.80;99.90
18103;DHT22;9178;51.120;6.192;2023-03-01T01:53:08;-1.80;99.90
18103;DHT22;9178;51.120;6.192;2023-03-01T01:55:36;-1.80;99.90
18103;DHT22;9178;51.120;6.192;2023-03-01T01:58:05;-1.80;99.90
18103;DHT22;9178;51.120;6.192;2023-03-01T02:00:33;-1.80;99.90
18103;DHT22;9178;51.120;6.192;2023-03-01T02:03:03;-1.80;99.90
18103;DHT22;9178;51.120;6.192;2023-03-01T02:05:38;-1.90;99.90
18103;DHT22;9178;51.120;6.192;2023-03-01T02:08:09;-1.90;99.90
18103;DHT22;9178;51.120;6.192;2023-03-01T02:10:37;-1.90;99.90
18103;DHT22;9178;51.120;6.192;2023-03-01T02:13:05;-1.90;99.90
18103;DHT22;9178;51.120;6.192;2023-03-01T02:15:33;-1.90;99.90
18103;DHT22;9178;51.120;6.192;2023-03-01T02:18:02;-1.90;99.90
18103;DHT22;9178;51.120;6.192;2023-03-01T02:20:37;-1.90;99.90
18103;DHT22;9178;51.120;6.192;2023-03-01T02:23:07;-2.00;99.90
18103;DHT22;9178;51.120;6.192;2023-03-01T02:25:41;-2.00;99.90
18103;DHT22;9178;51.120;6.192;2023-03-01T02:31:01;-2.10;99.90
18103;DHT22;9178;51.120;6.192;2023-03-01T02:33:47;-2.10;99.90
18103;DHT22;9178;51.120;6.192;2023-03-01T02:36:17;-2.10;99.90
18103;DHT22;9178;51.120;6.192;2023-03-01T02:38:44;-2.10;99.90
18103;DHT22;9178;51.120;6.192;2023-03-01T02:41:14;-2.20;99.90
18103;DHT22;9178;51.120;6.192;2023-03-01T02:43:44;-2.20;99.90
18103;DHT22;9178;51.120;6.192;2023-03-01T02:46:15;-2.30;99.90
18103;DHT22;9178;51.120;6.192;2023-03-01T02:48:44;-2.30;99.90
18103;DHT22;9178;51.120;6.192;2023-03-01T02:51:37;-2.30;99.90
18103;DHT22;9178;51.120;6.192;2023-03-01T02:54:15;-2.30;99.90
18103;DHT22;9178;51.120;6.192;2023-03-01T02:56:44;-2.30;99.90
18103;DHT22;9178;51.120;6.192;2023-03-01T02:59:15;-2.40;99.90
18103;DHT22;9178;51.120;6.192;2023-03-01T03:01:43;-2.30;99.90
18103;DHT22;9178;51.120;6.192;2023-03-01T03:04:12;-2.40;99.90
18103;DHT22;9178;51.120;6.192;2023-03-01T03:06:42;-2.40;99.90
18103;DHT22;9178;51.120;6.192;2023-03-01T03:09:09;-2.40;99.90
18103;DHT22;9178;51.120;6.192;2023-03-01T03:11:36;-2.50;99.90
18103;DHT22;9178;51.120;6.192;2023-03-01T03:14:04;-2.50;99.90
18103;DHT22;9178;51.120;6.192;2023-03-01T03:16:36;-2.50;99.90
18103;DHT22;9178;51.120;6.192;2023-03-01T03:19:02;-2.50;99.90
18103;DHT22;9178;51.120;6.192;2023-03-01T03:21:31;-2.50;99.90
18103;DHT22;9178;51.120;6.192;2023-03-01T03:23:58;-2.50;99.90
18103;DHT22;9178;51.120;6.192;2023-03-01T03:26:25;-2.50;99.90
18103;DHT22;9178;51.120;6.192;2023-03-01T03:28:52;-2.50;99.90
18103;DHT22;9178;51.120;6.192;2023-03-01T03:31:19;-2.60;99.90
18103;DHT22;9178;51.120;6.192;2023-03-01T03:33:47;-2.50;99.90
18103;DHT22;9178;51.120;6.192;2023-03-01T03:36:15;-2.60;99.90
18103;DHT22;9178;51.120;6.192;2023-03-01T03:38:43;-2.50;99.90
18103;DHT22;9178;51.120;6.192;2023-03-01T03:41:10;-2.60;99.90
18103;DHT22;9178;51.120;6.192;2023-03-01T03:43:39;-2.60;99.90
18103;DHT22;9178;51.120;6.192;2023-03-01T03:46:06;-2.60;99.90
18103;DHT22;9178;51.120;6.192;2023-03-01T03:48:34;-2.60;99.90
18103;DHT22;9178;51.120;6.192;2023-03-01T03:51:03;-2.70;99.90
18103;DHT22;9178;51.120;6.192;2023-03-01T03:53:31;-2.70;99.90
18103;DHT22;9178;51.120;6.192;2023-03-01T03:55:58;-2.70;99.90
18103;DHT22;9178;51.120;6.192;2023-03-01T03:58:25;-2.70;99.90
18103;DHT22;9178;51.120;6.192;2023-03-01T04:00:55;-2.70;99.90
18103;DHT22;9178;51.120;6.192;2023-03-01T04:03:23;-2.70;99.90
18103;DHT22;9178;51.120;6.192;2023-03-01T04:05:50;-2.70;99.90
18103;DHT22;9178;51.120;6.192;2023-03-01T04:08:20;-2.70;99.90
18103;DHT22;9178;51.120;6.192;2023-03-01T04:10:48;-2.70;99.90
18103;DHT22;9178;51.120;6.192;2023-03-01T04:13:18;-2.70;99.90
18103;DHT22;9178;51.120;6.192;2023-03-01T04:15:45;-2.80;99.90
18103;DHT22;9178;51.120;6.192;2023-03-01T04:18:13;-2.70;99.90
18103;DHT22;9178;51.120;6.192;2023-03-01T04:20:41;-2.80;99.90
18103;DHT22;9178;51.120;6.192;2023-03-01T04:23:10;-2.80;99.90
18103;DHT22;9178;51.120;6.192;2023-03-01T04:25:41;-2.80;99.90
18103;DHT22;9178;51.120;6.192;2023-03-01T04:28:09;-2.80;99.90
18103;DHT22;9178;51.120;6.192;2023-03-01T04:30:36;-2.80;99.90
18103;DHT22;9178;51.120;6.192;2023-03-01T04:33:04;-2.80;99.90
18103;DHT22;9178;51.120;6.192;2023-03-01T04:35:32;-2.90;99.90
18103;DHT22;9178;51.120;6.192;2023-03-01T04:37:59;-2.90;99.90
18103;DHT22;9178;51.120;6.192;2023-03-01T04:40:29;-2.90;99.90
18103;DHT22;9178;51.120;6.192;2023-03-01T04:42:57;-2.90;99.90
18103;DHT22;9178;51.120;6.192;2023-03-01T04:45:24;-2.90;99.90
18103;DHT22;9178;51.120;6.192;2023-03-01T04:47:50;-2.90;99.90
18103;DHT22;9178;51.120;6.192;2023-03-01T04:50:18;-2.90;99.90
18103;DHT22;9178;51.120;6.192;2023-03-01T04:52:48;-2.90;99.90
18103;DHT22;9178;51.120;6.192;2023-03-01T04:55:15;-2.90;99.90
18103;DHT22;9178;51.120;6.192;2023-03-01T04:57:43;-3.00;99.90
18103;DHT22;9178;51.120;6.192;2023-03-01T05:00:13;-3.00;99.90
18103;DHT22;9178;51.120;6.192;2023-03-01T05:02:50;-3.00;99.90
18103;DHT22;9178;51.120;6.192;2023-03-01T05:05:24;-3.00;99.90
18103;DHT22;9178;51.120;6.192;2023-03-01T05:07:55;-3.00;99.90
18103;DHT22;9178;51.120;6.192;2023-03-01T05:10:22;-3.00;99.90
18103;DHT22;9178;51.120;6.192;2023-03-01T05:12:49;-3.10;99.90
18103;DHT22;9178;51.120;6.192;2023-03-01T05:15:19;-3.10;99.90
18103;DHT22;9178;51.120;6.192;2023-03-01T05:17:47;-3.10;99.90
18103;DHT22;9178;51.120;6.192;2023-03-01T05:20:14;-3.10;99.90
18103;DHT22;9178;51.120;6.192;2023-03-01T05:22:41;-3.10;99.90
18103;DHT22;9178;51.120;6.192;2023-03-01T05:25:08;-3.10;99.90
18103;DHT22;9178;51.120;6.192;2023-03-01T05:27:35;-3.10;99.90
18103;DHT22;9178;51.120;6.192;2023-03-01T05:30:02;-3.10;99.90
18103;DHT22;9178;51.120;6.192;2023-03-01T05:32:41;-3.10;99.90
18103;DHT22;9178;51.120;6.192;2023-03-01T05:35:09;-3.10;99.90
18103;DHT22;9178;51.120;6.192;2023-03-01T05:37:39;-3.20;99.90
18103;DHT22;9178;51.120;6.192;2023-03-01T05:40:06;-3.20;99.90
18103;DHT22;9178;51.120;6.192;2023-03-01T05:42:42;-3.10;99.90
18103;DHT22;9178;51.120;6.192;2023-03-01T05:45:09;-3.20;99.90
18103;DHT22;9178;51.120;6.192;2023-03-01T05:47:36;-3.20;99.90
18103;DHT22;9178;51.120;6.192;2023-03-01T05:50:05;-3.20;99.90
18103;DHT22;9178;51.120;6.192;2023-03-01T05:52:32;-3.20;99.90
18103;DHT22;9178;51.120;6.192;2023-03-01T05:55:00;-3.10;99.90
18103;DHT22;9178;51.120;6.192;2023-03-01T05:57:28;-3.10;99.90
18103;DHT22;9178;51.120;6.192;2023-03-01T05:59:55;-3.10;99.90
18103;DHT22;9178;51.120;6.192;2023-03-01T06:02:22;-3.20;99.90
18103;DHT22;9178;51.120;6.192;2023-03-01T06:04:49;-3.20;99.90
18103;DHT22;9178;51.120;6.192;2023-03-01T06:07:17;-3.20;99.90
18103;DHT22;9178;51.120;6.192;2023-03-01T06:09:44;-3.30;99.90
18103;DHT22;9178;51.120;6.192;2023-03-01T06:12:11;-3.20;99.90
18103;DHT22;9178;51.120;6.192;2023-03-01T06:14:37;-3.20;99.90
18103;DHT22;9178;51.120;6.192;2023-03-01T06:17:04;-3.20;99.90
18103;DHT22;9178;51.120;6.192;2023-03-01T06:19:31;-3.20;99.90
18103;DHT22;9178;51.120;6.192;2023-03-01T06:21:58;-3.20;99.90
18103;DHT22;9178;51.120;6.192;2023-03-01T06:24:26;-3.20;99.90
18103;DHT22;9178;51.120;6.192;2023-03-01T06:26:54;-3.20;99.90
18103;DHT22;9178;51.120;6.192;2023-03-01T06:29:21;-3.20;99.90
18103;DHT22;9178;51.120;6.192;2023-03-01T06:31:48;-3.20;99.90
18103;DHT22;9178;51.120;6.192;2023-03-01T06:34:15;-3.20;99.90
18103;DHT22;9178;51.120;6.192;2023-03-01T06:36:42;-3.20;99.90
18103;DHT22;9178;51.120;6.192;2023-03-01T06:39:08;-3.20;99.90
18103;DHT22;9178;51.120;6.192;2023-03-01T06:41:36;-3.20;99.90
18103;DHT22;9178;51.120;6.192;2023-03-01T06:44:03;-3.10;99.90
18103;DHT22;9178;51.120;6.192;2023-03-01T06:46:30;-3.10;99.90
18103;DHT22;9178;51.120;6.192;2023-03-01T06:48:57;-3.10;99.90
18103;DHT22;9178;51.120;6.192;2023-03-01T06:51:24;-3.10;99.90
18103;DHT22;9178;51.120;6.192;2023-03-01T06:53:51;-3.10;99.90
18103;DHT22;9178;51.120;6.192;2023-03-01T06:56:17;-3.00;99.90
18103;DHT22;9178;51.120;6.192;2023-03-01T06:58:45;-3.00;99.90
18103;DHT22;9178;51.120;6.192;2023-03-01T07:01:12;-3.00;99.90
18103;DHT22;9178;51.120;6.192;2023-03-01T07:03:39;-2.90;99.90
18103;DHT22;9178;51.120;6.192;2023-03-01T07:06:06;-2.90;99.90
18103;DHT22;9178;51.120;6.192;2023-03-01T07:08:33;-2.80;99.90
18103;DHT22;9178;51.120;6.192;2023-03-01T07:11:00;-2.80;99.90
18103;DHT22;9178;51.120;6.192;2023-03-01T07:13:28;-2.70;99.90
18103;DHT22;9178;51.120;6.192;2023-03-01T07:15:56;-2.70;99.90
18103;DHT22;9178;51.120;6.192;2023-03-01T07:18:23;-2.70;99.90
18103;DHT22;9178;51.120;6.192;2023-03-01T07:20:50;-2.60;99.90
18103;DHT22;9178;51.120;6.192;2023-03-01T07:23:17;-2.60;99.90
18103;DHT22;9178;51.120;6.192;2023-03-01T07:25:44;-2.50;99.90
18103;DHT22;9178;51.120;6.192;2023-03-01T07:28:11;-2.30;99.90
18103;DHT22;9178;51.120;6.192;2023-03-01T07:30:37;-1.70;99.90
18103;DHT22;9178;51.120;6.192;2023-03-01T07:33:07;-1.00;99.90
18103;DHT22;9178;51.120;6.192;2023-03-01T07:35:34;-0.30;99.90
18103;DHT22;9178;51.120;6.192;2023-03-01T07:38:00;0.50;99.90
18103;DHT22;9178;51.120;6.192;2023-03-01T07:40:27;1.10;99.90
18103;DHT22;9178;51.120;6.192;2023-03-01T07:42:55;1.80;99.90
18103;DHT22;9178;51.120;6.192;2023-03-01T07:45:23;2.40;99.90
18103;DHT22;9178;51.120;6.192;2023-03-01T07:47:50;2.90;99.90
18103;DHT22;9178;51.120;6.192;2023-03-01T07:50:19;3.50;99.90
18103;DHT22;9178;51.120;6.192;2023-03-01T07:52:46;4.00;99.90
18103;DHT22;9178;51.120;6.192;2023-03-01T07:55:14;4.40;99.90
18103;DHT22;9178;51.120;6.192;2023-03-01T07:57:41;4.90;99.90
18103;DHT22;9178;51.120;6.192;2023-03-01T08:00:11;5.10;99.90
18103;DHT22;9178;51.120;6.192;2023-03-01T08:02:38;5.30;99.90
18103;DHT22;9178;51.120;6.192;2023-03-01T08:05:06;5.50;99.90
18103;DHT22;9178;51.120;6.192;2023-03-01T08:07:34;5.70;99.90
18103;DHT22;9178;51.120;6.192;2023-03-01T08:10:01;5.90;99.90
18103;DHT22;9178;51.120;6.192;2023-03-01T08:12:28;6.20;99.90
18103;DHT22;9178;51.120;6.192;2023-03-01T08:14:55;6.60;99.90
18103;DHT22;9178;51.120;6.192;2023-03-01T08:17:22;7.00;99.90
18103;DHT22;9178;51.120;6.192;2023-03-01T08:19:49;7.30;99.90
18103;DHT22;9178;51.120;6.192;2023-03-01T08:22:16;7.60;99.90
18103;DHT22;9178;51.120;6.192;2023-03-01T08:24:44;7.70;99.90
18103;DHT22;9178;51.120;6.192;2023-03-01T08:27:10;7.80;99.90
18103;DHT22;9178;51.120;6.192;2023-03-01T08:29:38;8.00;99.90
18103;DHT22;9178;51.120;6.192;2023-03-01T08:32:05;8.20;99.90
18103;DHT22;9178;51.120;6.192;2023-03-01T08:34:32;8.60;99.90
18103;DHT22;9178;51.120;6.192;2023-03-01T08:37:01;8.90;99.90
18103;DHT22;9178;51.120;6.192;2023-03-01T08:39:28;9.10;99.90
18103;DHT22;9178;51.120;6.192;2023-03-01T08:41:56;9.00;99.90
18103;DHT22;9178;51.120;6.192;2023-03-01T08:44:23;9.00;99.90
18103;DHT22;9178;51.120;6.192;2023-03-01T08:46:50;9.00;99.90
18103;DHT22;9178;51.120;6.192;2023-03-01T08:49:19;9.00;99.90
18103;DHT22;9178;51.120;6.192;2023-03-01T08:51:47;8.50;99.90
18103;DHT22;9178;51.120;6.192;2023-03-01T08:54:15;8.20;99.90
18103;DHT22;9178;51.120;6.192;2023-03-01T08:56:44;7.60;99.90
18103;DHT22;9178;51.120;6.192;2023-03-01T08:59:12;7.40;99.90
18103;DHT22;9178;51.120;6.192;2023-03-01T09:01:40;7.30;99.90
18103;DHT22;9178;51.120;6.192;2023-03-01T09:04:08;7.00;99.90
18103;DHT22;9178;51.120;6.192;2023-03-01T09:06:36;6.90;99.90
18103;DHT22;9178;51.120;6.192;2023-03-01T09:09:04;6.90;99.90
18103;DHT22;9178;51.120;6.192;2023-03-01T09:11:31;6.60;99.90
18103;DHT22;9178;51.120;6.192;2023-03-01T09:13:59;6.10;99.90
18103;DHT22;9178;51.120;6.192;2023-03-01T09:16:27;6.00;99.90
18103;DHT22;9178;51.120;6.192;2023-03-01T09:18:55;6.00;99.90
18103;DHT22;9178;51.120;6.192;2023-03-01T09:21:22;5.70;99.90
18103;DHT22;9178;51.120;6.192;2023-03-01T09:23:49;5.60;99.90
18103;DHT22;9178;51.120;6.192;2023-03-01T09:26:18;5.30;99.90
18103;DHT22;9178;51.120;6.192;2023-03-01T09:28:47;5.00;99.90
18103;DHT22;9178;51.120;6.192;2023-03-01T09:31:15;4.90;99.90
18103;DHT22;9178;51.120;6.192;2023-03-01T09:33:46;4.90;99.90
18103;DHT22;9178;51.120;6.192;2023-03-01T09:36:15;5.00;99.90
18103;DHT22;9178;51.120;6.192;2023-03-01T09:38:43;5.20;99.90
18103;DHT22;9178;51.120;6.192;2023-03-01T09:41:14;5.30;99.90
18103;DHT22;9178;51.120;6.192;2023-03-01T09:43:48;5.50;99.90
18103;DHT22;9178;51.120;6.192;2023-03-01T09:46:21;5.40;99.90
18103;DHT22;9178;51.120;6.192;2023-03-01T09:48:52;5.40;99.90
18103;DHT22;9178;51.120;6.192;2023-03-01T09:51:25;5.90;99.90
18103;DHT22;9178;51.120;6.192;2023-03-01T09:53:53;6.30;99.90
18103;DHT22;9178;51.120;6.192;2023-03-01T09:56:27;6.30;99.90
18103;DHT22;9178;51.120;6.192;2023-03-01T09:59:05;6.20;99.90
18103;DHT22;9178;51.120;6.192;2023-03-01T10:01:36;6.20;99.90
18103;DHT22;9178;51.120;6.192;2023-03-01T10:04:18;6.10;99.90
18103;DHT22;9178;51.120;6.192;2023-03-01T10:06:51;6.40;99.90
18103;DHT22;9178;51.120;6.192;2023-03-01T10:09:21;6.70;99.90
18103;DHT22;9178;51.120;6.192;2023-03-01T10:11:50;7.00;99.90
18103;DHT22;9178;51.120;6.192;2023-03-01T10:14:28;7.20;99.90
18103;DHT22;9178;51.120;6.192;2023-03-01T10:16:58;7.60;99.90
18103;DHT22;9178;51.120;6.192;2023-03-01T10:19:32;7.60;99.90
18103;DHT22;9178;51.120;6.192;2023-03-01T10:22:04;7.40;99.90
18103;DHT22;9178;51.120;6.192;2023-03-01T10:24:35;7.30;99.90
18103;DHT22;9178;51.120;6.192;2023-03-01T10:27:05;7.50;99.90
18103;DHT22;9178;51.120;6.192;2023-03-01T10:29:39;7.90;99.90
18103;DHT22;9178;51.120;6.192;2023-03-01T10:32:11;8.60;99.90
18103;DHT22;9178;51.120;6.192;2023-03-01T10:34:39;8.90;99.90
18103;DHT22;9178;51.120;6.192;2023-03-01T10:37:11;9.30;99.90
18103;DHT22;9178;51.120;6.192;2023-03-01T10:39:55;8.90;98.70
18103;DHT22;9178;51.120;6.192;2023-03-01T10:42:26;8.50;99.90
18103;DHT22;9178;51.120;6.192;2023-03-01T10:44:54;8.30;99.90
18103;DHT22;9178;51.120;6.192;2023-03-01T10:47:23;8.30;99.90
18103;DHT22;9178;51.120;6.192;2023-03-01T10:50:04;8.30;99.90
18103;DHT22;9178;51.120;6.192;2023-03-01T10:52:34;8.70;99.90
18103;DHT22;9178;51.120;6.192;2023-03-01T10:55:05;8.90;99.90
18103;DHT22;9178;51.120;6.192;2023-03-01T10:57:49;8.90;99.90
18103;DHT22;9178;51.120;6.192;2023-03-01T11:00:20;8.40;99.90
18103;DHT22;9178;51.120;6.192;2023-03-01T11:02:49;8.60;99.50
18103;DHT22;9178;51.120;6.192;2023-03-01T11:05:21;8.30;99.90
18103;DHT22;9178;51.120;6.192;2023-03-01T11:07:51;8.90;99.90
18103;DHT22;9178;51.120;6.192;2023-03-01T11:10:20;9.90;99.90
18103;DHT22;9178;51.120;6.192;2023-03-01T11:12:47;10.90;97.50
18103;DHT22;9178;51.120;6.192;2023-03-01T11:15:24;11.50;98.70
18103;DHT22;9178;51.120;6.192;2023-03-01T11:17:52;12.10;96.00
18103;DHT22;9178;51.120;6.192;2023-03-01T11:20:28;12.50;95.40
18103;DHT22;9178;51.120;6.192;2023-03-01T11:22:59;12.70;91.30
18103;DHT22;9178;51.120;6.192;2023-03-01T11:25:31;12.00;92.70
18103;DHT22;9178;51.120;6.192;2023-03-01T11:28:02;11.40;93.90
18103;DHT22;9178;51.120;6.192;2023-03-01T11:30:34;11.60;93.50
18103;DHT22;9178;51.120;6.192;2023-03-01T11:33:17;11.70;93.90
18103;DHT22;9178;51.120;6.192;2023-03-01T11:35:53;11.50;93.70
18103;DHT22;9178;51.120;6.192;2023-03-01T11:38:24;10.90;93.00
18103;DHT22;9178;51.120;6.192;2023-03-01T11:40:57;10.40;93.90
18103;DHT22;9178;51.120;6.192;2023-03-01T11:43:31;10.20;93.70
18103;DHT22;9178;51.120;6.192;2023-03-01T11:49:08;9.80;93.30
18103;DHT22;9178;51.120;6.192;2023-03-01T11:51:51;10.00;92.70
18103;DHT22;9178;51.120;6.192;2023-03-01T11:54:29;10.40;95.00
18103;DHT22;9178;51.120;6.192;2023-03-01T11:57:01;11.10;93.60
18103;DHT22;9178;51.120;6.192;2023-03-01T11:59:52;11.80;92.60
18103;DHT22;9178;51.120;6.192;2023-03-01T12:02:42;12.90;92.30
18103;DHT22;9178;51.120;6.192;2023-03-01T12:05:45;13.50;90.80
18103;DHT22;9178;51.120;6.192;2023-03-01T12:08:22;13.30;89.10
18103;DHT22;9178;51.120;6.192;2023-03-01T12:10:58;13.30;87.40
18103;DHT22;9178;51.120;6.192;2023-03-01T12:13:44;13.20;83.10
18103;DHT22;9178;51.120;6.192;2023-03-01T12:16:23;12.90;87.30
18103;DHT22;9178;51.120;6.192;2023-03-01T12:19:01;13.50;83.80
18103;DHT22;9178;51.120;6.192;2023-03-01T12:21:54;13.80;81.80
18103;DHT22;9178;51.120;6.192;2023-03-01T12:24:47;14.20;85.10
18103;DHT22;9178;51.120;6.192;2023-03-01T12:27:37;15.00;84.10
18103;DHT22;9178;51.120;6.192;2023-03-01T12:30:21;15.20;79.20
18103;DHT22;9178;51.120;6.192;2023-03-01T12:32:59;14.40;80.50
18103;DHT22;9178;51.120;6.192;2023-03-01T12:35:39;13.60;81.80
18103;DHT22;9178;51.120;6.192;2023-03-01T12:38:24;12.70;85.60
18103;DHT22;9178;51.120;6.192;2023-03-01T12:41:11;12.40;86.60
18103;DHT22;9178;51.120;6.192;2023-03-01T12:43:51;12.10;83.90
18103;DHT22;9178;51.120;6.192;2023-03-01T12:46:37;11.40;84.40
18103;DHT22;9178;51.120;6.192;2023-03-01T12:49:10;11.10;88.20
18103;DHT22;9178;51.120;6.192;2023-03-01T12:51:40;11.20;87.40
18103;DHT22;9178;51.120;6.192;2023-03-01T12:54:15;11.20;85.10
18103;DHT22;9178;51.120;6.192;2023-03-01T12:56:45;11.20;85.40
18103;DHT22;9178;51.120;6.192;2023-03-01T12:59:21;11.40;85.30
18103;DHT22;9178;51.120;6.192;2023-03-01T13:01:54;11.30;84.20
18103;DHT22;9178;51.120;6.192;2023-03-01T13:04:37;11.50;85.50
18103;DHT22;9178;51.120;6.192;2023-03-01T13:07:16;11.70;83.10
18103;DHT22;9178;51.120;6.192;2023-03-01T13:09:51;11.90;80.90
18103;DHT22;9178;51.120;6.192;2023-03-01T13:12:46;12.00;82.80
18103;DHT22;9178;51.120;6.192;2023-03-01T13:15:28;12.50;81.20
18103;DHT22;9178;51.120;6.192;2023-03-01T13:17:56;12.60;79.40
18103;DHT22;9178;51.120;6.192;2023-03-01T13:20:26;12.50;79.20
18103;DHT22;9178;51.120;6.192;2023-03-01T13:23:03;12.30;79.60
18103;DHT22;9178;51.120;6.192;2023-03-01T13:25:31;12.10;80.10
18103;DHT22;9178;51.120;6.192;2023-03-01T13:28:45;11.60;80.70
18103;DHT22;9178;51.120;6.192;2023-03-01T13:34:52;11.40;83.00
18103;DHT22;9178;51.120;6.192;2023-03-01T13:37:33;11.80;83.00
18103;DHT22;9178;51.120;6.192;2023-03-01T13:43:29;11.30;81.60
18103;DHT22;9178;51.120;6.192;2023-03-01T13:45:58;11.70;81.20
18103;DHT22;9178;51.120;6.192;2023-03-01T13:48:28;11.70;80.50
18103;DHT22;9178;51.120;6.192;2023-03-01T13:50:58;11.90;78.80
18103;DHT22;9178;51.120;6.192;2023-03-01T13:53:30;12.30;80.90
18103;DHT22;9178;51.120;6.192;2023-03-01T13:56:00;12.90;79.60
18103;DHT22;9178;51.120;6.192;2023-03-01T13:58:29;13.70;77.50
18103;DHT22;9178;51.120;6.192;2023-03-01T14:01:00;14.10;76.30
18103;DHT22;9178;51.120;6.192;2023-03-01T14:03:28;14.10;76.10
18103;DHT22;9178;51.120;6.192;2023-03-01T14:06:01;14.40;77.70
18103;DHT22;9178;51.120;6.192;2023-03-01T14:08:30;15.10;74.00
18103;DHT22;9178;51.120;6.192;2023-03-01T14:11:21;15.60;74.20
18103;DHT22;9178;51.120;6.192;2023-03-01T14:14:07;15.80;69.90
18103;DHT22;9178;51.120;6.192;2023-03-01T14:16:46;15.50;68.60
18103;DHT22;9178;51.120;6.192;2023-03-01T14:19:17;15.10;69.90
18103;DHT22;9178;51.120;6.192;2023-03-01T14:21:46;15.30;68.40
18103;DHT22;9178;51.120;6.192;2023-03-01T14:24:18;15.40;70.60
18103;DHT22;9178;51.120;6.192;2023-03-01T14:26:46;15.40;70.50
18103;DHT22;9178;51.120;6.192;2023-03-01T14:29:27;15.20;70.60
18103;DHT22;9178;51.120;6.192;2023-03-01T14:31:55;14.60;69.40
18103;DHT22;9178;51.120;6.192;2023-03-01T14:34:34;13.90;70.90
18103;DHT22;9178;51.120;6.192;2023-03-01T14:37:10;13.50;73.00
18103;DHT22;9178;51.120;6.192;2023-03-01T14:39:37;13.40;72.10
18103;DHT22;9178;51.120;6.192;2023-03-01T14:42:04;13.20;70.20
18103;DHT22;9178;51.120;6.192;2023-03-01T14:44:31;13.20;73.30
18103;DHT22;9178;51.120;6.192;2023-03-01T14:47:04;13.30;71.70
18103;DHT22;9178;51.120;6.192;2023-03-01T14:49:32;13.40;73.30
18103;DHT22;9178;51.120;6.192;2023-03-01T14:52:01;13.10;70.70
18103;DHT22;9178;51.120;6.192;2023-03-01T14:54:35;12.50;73.90
18103;DHT22;9178;51.120;6.192;2023-03-01T14:57:03;12.00;73.80
18103;DHT22;9178;51.120;6.192;2023-03-01T14:59:33;11.50;73.80
18103;DHT22;9178;51.120;6.192;2023-03-01T15:02:00;10.90;76.40
18103;DHT22;9178;51.120;6.192;2023-03-01T15:04:29;10.50;76.50
18103;DHT22;9178;51.120;6.192;2023-03-01T15:06:57;10.20;78.70
18103;DHT22;9178;51.120;6.192;2023-03-01T15:09:32;10.10;79.00
18103;DHT22;9178;51.120;6.192;2023-03-01T15:12:00;9.90;79.60
18103;DHT22;9178;51.120;6.192;2023-03-01T15:14:40;9.80;79.80
18103;DHT22;9178;51.120;6.192;2023-03-01T15:17:21;9.60;80.10
18103;DHT22;9178;51.120;6.192;2023-03-01T15:19:52;9.60;80.30
18103;DHT22;9178;51.120;6.192;2023-03-01T15:22:19;9.40;79.30
18103;DHT22;9178;51.120;6.192;2023-03-01T15:24:48;9.30;79.80
18103;DHT22;9178;51.120;6.192;2023-03-01T15:27:18;9.00;81.00
18103;DHT22;9178;51.120;6.192;2023-03-01T15:29:49;8.80;80.80
18103;DHT22;9178;51.120;6.192;2023-03-01T15:32:26;8.70;81.30
18103;DHT22;9178;51.120;6.192;2023-03-01T15:34:55;8.60;81.50
18103;DHT22;9178;51.120;6.192;2023-03-01T15:37:44;8.40;81.10
18103;DHT22;9178;51.120;6.192;2023-03-01T15:40:20;8.20;81.60
18103;DHT22;9178;51.120;6.192;2023-03-01T15:42:50;8.10;82.90
18103;DHT22;9178;51.120;6.192;2023-03-01T15:45:25;8.10;83.20
18103;DHT22;9178;51.120;6.192;2023-03-01T15:47:54;7.90;82.30
18103;DHT22;9178;51.120;6.192;2023-03-01T15:50:26;7.80;81.90
18103;DHT22;9178;51.120;6.192;2023-03-01T15:52:55;7.70;82.50
18103;DHT22;9178;51.120;6.192;2023-03-01T15:55:24;7.50;83.70
18103;DHT22;9178;51.120;6.192;2023-03-01T15:57:59;7.50;84.50
18103;DHT22;9178;51.120;6.192;2023-03-01T16:00:27;7.40;85.40
18103;DHT22;9178;51.120;6.192;2023-03-01T16:02:54;7.30;86.00
18103;DHT22;9178;51.120;6.192;2023-03-01T16:05:22;7.20;86.60
18103;DHT22;9178;51.120;6.192;2023-03-01T16:07:51;7.20;86.00
18103;DHT22;9178;51.120;6.192;2023-03-01T16:10:19;7.20;87.00
18103;DHT22;9178;51.120;6.192;2023-03-01T16:12:46;7.30;85.60
18103;DHT22;9178;51.120;6.192;2023-03-01T16:15:17;7.20;86.70
18103;DHT22;9178;51.120;6.192;2023-03-01T16:17:45;7.10;87.30
18103;DHT22;9178;51.120;6.192;2023-03-01T16:20:12;7.00;87.20
18103;DHT22;9178;51.120;6.192;2023-03-01T16:22:41;7.00;88.60
18103;DHT22;9178;51.120;6.192;2023-03-01T16:25:10;6.80;88.90